createdAt,value
2023-05-21T00:01:42.325Z,102264.16
2023-05-21T00:04:08.964Z,102251.78
2023-05-21T00:06:36.203Z,102254.63
2023-05-21T00:09:04.518Z,102257.59
2023-05-21T00:11:31.559Z,102259.69
2023-05-21T00:13:58.411Z,102246.06
2023-05-21T00:16:25.665Z,102252.25
2023-05-21T00:18:54.562Z,102228.69
2023-05-21T00:21:25.997Z,102234.31
2023-05-21T00:23:56.553Z,102235.38
2023-05-21T00:26:26.540Z,102234.22
2023-05-21T00:28:53.045Z,102229.28
2023-05-21T00:31:19.750Z,102237.09
2023-05-21T00:33:46.674Z,102227.56
2023-05-21T00:36:15.958Z,102227.66
2023-05-21T00:38:44.268Z,102228.88
2023-05-21T00:41:11.124Z,102223.44
2023-05-21T00:43:40.434Z,102227.06
2023-05-21T00:46:08.659Z,102223.34
2023-05-21T00:48:35.376Z,102204.56
2023-05-21T00:51:01.943Z,102220.38
2023-05-21T00:53:28.547Z,102216.88
2023-05-21T00:55:55.236Z,102209.25
2023-05-21T00:58:21.795Z,102210.00
2023-05-21T01:00:49.481Z,102214.38
2023-05-21T01:03:16.417Z,102213.44
2023-05-21T01:05:45.073Z,102202.75
2023-05-21T01:08:12.793Z,102212.75
2023-05-21T01:10:39.362Z,102204.47
2023-05-21T01:13:05.957Z,102207.41
2023-05-21T01:15:32.639Z,102198.56
2023-05-21T01:17:59.715Z,102189.13
2023-05-21T01:20:27.030Z,102209.03
2023-05-21T01:22:55.187Z,102204.56
2023-05-21T01:25:23.310Z,102199.91
2023-05-21T01:27:50.646Z,102199.03
2023-05-21T01:30:18.670Z,102203.41
2023-05-21T01:32:49.769Z,102210.47
2023-05-21T01:35:32.519Z,102212.78
2023-05-21T01:38:09.260Z,102194.94
2023-05-21T01:40:59.537Z,102200.84
2023-05-21T01:43:29.143Z,102204.00
2023-05-21T01:45:57.505Z,102192.66
2023-05-21T01:48:27.152Z,102204.09
2023-05-21T01:50:55.395Z,102199.81
2023-05-21T01:53:22.232Z,102182.84
2023-05-21T01:55:48.777Z,102186.00
2023-05-21T01:58:18.381Z,102195.63
2023-05-21T02:00:47.593Z,102200.94
2023-05-21T02:03:17.657Z,102187.22
2023-05-21T02:05:45.836Z,102192.56
2023-05-21T02:08:13.001Z,102196.19
2023-05-21T02:10:40.179Z,102194.56
2023-05-21T02:13:06.720Z,102190.94
2023-05-21T02:15:34.907Z,102187.13
2023-05-21T02:18:01.771Z,102177.13
2023-05-21T02:20:28.267Z,102184.47
2023-05-21T02:22:54.718Z,102192.47
2023-05-21T02:25:21.187Z,102193.22
2023-05-21T02:27:47.908Z,102193.13
2023-05-21T02:30:15.929Z,102192.47
2023-05-21T02:32:43.525Z,102196.09
2023-05-21T02:35:12.872Z,102183.81
2023-05-21T02:37:40.523Z,102194.56
2023-05-21T02:40:07.991Z,102198.84
2023-05-21T02:42:34.614Z,102199.91
2023-05-21T02:45:01.132Z,102173.47
2023-05-21T02:47:27.692Z,102196.47
2023-05-21T02:49:55.373Z,102196.84
2023-05-21T02:52:24.682Z,102190.28
2023-05-21T02:54:51.934Z,102178.56
2023-05-21T02:57:18.954Z,102179.81
2023-05-21T02:59:46.060Z,102192.09
2023-05-21T03:02:12.994Z,102190.19
2023-05-21T03:04:45.939Z,102196.94
2023-05-21T03:07:18.017Z,102192.75
2023-05-21T03:09:44.834Z,102169.41
2023-05-21T03:12:11.694Z,102187.81
2023-05-21T03:14:38.440Z,102193.13
2023-05-21T03:17:06.076Z,102177.03
2023-05-21T03:19:36.611Z,102178.84
2023-05-21T03:22:04.592Z,102174.47
2023-05-21T03:24:32.091Z,102188.19
2023-05-21T03:27:01.699Z,102178.38
2023-05-21T03:29:28.701Z,102179.91
2023-05-21T03:31:55.748Z,102180.47
2023-05-21T03:34:22.404Z,102185.22
2023-05-21T03:36:49.576Z,102166.56
2023-05-21T03:39:16.133Z,102175.88
2023-05-21T03:41:44.350Z,102170.84
2023-05-21T03:44:11.100Z,102171.78
2023-05-21T03:46:37.888Z,102172.25
2023-05-21T03:49:04.561Z,102170.75
2023-05-21T03:51:31.736Z,102174.16
2023-05-21T03:53:59.538Z,102174.38
2023-05-21T03:56:26.264Z,102157.31
2023-05-21T03:58:53.146Z,102165.69
2023-05-21T04:01:20.037Z,102163.88
2023-05-21T04:03:47.081Z,102167.50
2023-05-21T04:06:14.061Z,102174.25
2023-05-21T04:08:40.564Z,102158.94
2023-05-21T04:11:07.499Z,102165.69
2023-05-21T04:13:33.977Z,102173.50
2023-05-21T04:16:00.676Z,102163.13
2023-05-21T04:18:27.403Z,102172.75
2023-05-21T04:20:54.044Z,102177.97
2023-05-21T04:23:23.797Z,102172.38
2023-05-21T04:25:51.185Z,102171.22
2023-05-21T04:28:20.265Z,102176.84
2023-05-21T04:30:48.021Z,102182.66
2023-05-21T04:33:18.422Z,102185.13
2023-05-21T04:35:49.857Z,102178.06
2023-05-21T04:38:20.633Z,102190.28
2023-05-21T04:40:50.685Z,102181.50
2023-05-21T04:43:17.246Z,102184.75
2023-05-21T04:45:43.853Z,102168.19
2023-05-21T04:48:10.318Z,102191.13
2023-05-21T04:50:36.789Z,102176.84
2023-05-21T04:53:03.501Z,102186.38
2023-05-21T04:55:29.968Z,102177.78
2023-05-21T04:57:57.668Z,102191.50
2023-05-21T05:00:26.107Z,102189.78
2023-05-21T05:02:52.798Z,102175.22
2023-05-21T05:05:19.507Z,102168.34
2023-05-21T05:07:48.156Z,102185.13
2023-05-21T05:10:14.718Z,102190.84
2023-05-21T05:12:41.167Z,102184.00
2023-05-21T05:15:08.222Z,102187.88
2023-05-21T05:17:35.706Z,102186.94
2023-05-21T05:20:02.225Z,102174.84
2023-05-21T05:22:28.763Z,102185.22
2023-05-21T05:24:55.259Z,102186.66
2023-05-21T05:27:21.777Z,102188.28
2023-05-21T05:29:48.262Z,102180.47
2023-05-21T05:32:15.202Z,102165.03
2023-05-21T05:34:42.772Z,102183.59
2023-05-21T05:37:09.221Z,102185.41
2023-05-21T05:39:37.112Z,102179.31
2023-05-21T05:42:03.718Z,102174.84
2023-05-21T05:44:30.190Z,102165.88
2023-05-21T05:46:56.791Z,102165.22
2023-05-21T05:49:23.242Z,102164.44
2023-05-21T05:51:49.701Z,102178.25
2023-05-21T05:54:16.569Z,102172.81
2023-05-21T05:56:43.082Z,102163.31
2023-05-21T05:59:09.719Z,102168.44
2023-05-21T06:01:36.357Z,102171.31
2023-05-21T06:04:02.885Z,102178.94
2023-05-21T06:06:29.311Z,102159.88
2023-05-21T06:08:56.037Z,102166.94
2023-05-21T06:11:23.779Z,102168.06
2023-05-21T06:13:50.247Z,102154.53
2023-05-21T06:16:16.847Z,102165.38
2023-05-21T06:18:44.517Z,102162.81
2023-05-21T06:21:13.189Z,102166.50
2023-05-21T06:23:39.843Z,102157.94
2023-05-21T06:26:06.361Z,102164.81
2023-05-21T06:28:33.940Z,102150.50
2023-05-21T06:31:00.446Z,102136.59
2023-05-21T06:33:28.397Z,102154.63
2023-05-21T06:35:55.379Z,102171.09
2023-05-21T06:38:21.887Z,102167.63
2023-05-21T06:40:48.479Z,102170.22
2023-05-21T06:43:15.096Z,102157.72
2023-05-21T06:45:41.750Z,102157.59
2023-05-21T06:48:08.735Z,102164.63
2023-05-21T06:50:35.194Z,102164.50
2023-05-21T06:53:01.810Z,102163.00
2023-05-21T06:55:28.308Z,102148.22
2023-05-21T06:57:54.861Z,102164.97
2023-05-21T07:00:21.310Z,102158.91
2023-05-21T07:02:47.896Z,102157.78
2023-05-21T07:05:14.452Z,102151.09
2023-05-21T07:07:40.985Z,102155.84
2023-05-21T07:10:08.431Z,102168.47
2023-05-21T07:12:35.049Z,102156.88
2023-05-21T07:15:01.918Z,102165.41
2023-05-21T07:17:28.388Z,102154.63
2023-05-21T07:19:54.856Z,102163.88
2023-05-21T07:22:21.419Z,102161.78
2023-05-21T07:24:48.124Z,102161.03
2023-05-21T07:27:25.238Z,102149.75
2023-05-21T07:29:52.052Z,102180.63
2023-05-21T07:32:18.550Z,102174.66
2023-05-21T07:34:45.026Z,102160.34
2023-05-21T07:37:11.471Z,102163.44
2023-05-21T07:39:38.022Z,102170.94
2023-05-21T07:42:05.911Z,102166.75
2023-05-21T07:44:32.479Z,102163.75
2023-05-21T07:46:58.984Z,102172.00
2023-05-21T07:49:25.454Z,102158.94
2023-05-21T07:51:51.917Z,102160.56
2023-05-21T07:54:19.606Z,102163.13
2023-05-21T07:56:46.221Z,102165.91
2023-05-21T07:59:14.821Z,102152.66
2023-05-21T08:01:41.928Z,102155.75
2023-05-21T08:04:08.567Z,102163.03
2023-05-21T08:06:37.384Z,102160.56
2023-05-21T08:09:06.127Z,102164.97
2023-05-21T08:11:33.186Z,102159.72
2023-05-21T08:14:00.876Z,102153.72
2023-05-21T08:16:27.488Z,102165.28
2023-05-21T08:18:53.937Z,102161.31
2023-05-21T08:21:20.746Z,102170.31
2023-05-21T08:23:49.376Z,102153.50
2023-05-21T08:26:18.698Z,102157.56
2023-05-21T08:28:45.210Z,102166.66
2023-05-21T08:31:12.316Z,102159.06
2023-05-21T08:33:38.908Z,102164.69
2023-05-21T08:36:06.644Z,102158.56
2023-05-21T08:38:34.047Z,102165.59
2023-05-21T08:41:01.822Z,102159.75
2023-05-21T08:43:29.603Z,102153.84
2023-05-21T08:46:00.436Z,102168.72
2023-05-21T08:48:27.885Z,102169.78
2023-05-21T08:50:54.995Z,102159.19
2023-05-21T08:53:28.267Z,102157.78
2023-05-21T08:55:56.214Z,102163.47
2023-05-21T08:58:22.940Z,102154.13
2023-05-21T09:00:49.522Z,102156.72
2023-05-21T09:03:16.712Z,102161.91
2023-05-21T09:05:44.988Z,102160.69
2023-05-21T09:08:19.390Z,102161.59
2023-05-21T09:10:51.437Z,102137.53
2023-05-21T09:13:19.155Z,102145.47
2023-05-21T09:15:46.873Z,102143.53
2023-05-21T09:18:14.221Z,102138.25
2023-05-21T09:20:40.916Z,102149.28
2023-05-21T09:23:16.455Z,102137.81
2023-05-21T09:25:47.438Z,102140.38
2023-05-21T09:28:15.722Z,102140.97
2023-05-21T09:30:52.014Z,102143.25
2023-05-21T09:33:26.098Z,102155.56
2023-05-21T09:35:52.747Z,102154.53
2023-05-21T09:38:22.684Z,102139.97
2023-05-21T09:40:49.547Z,102155.78
2023-05-21T09:43:16.673Z,102149.19
2023-05-21T09:45:54.283Z,102152.53
2023-05-21T09:48:42.030Z,102132.50
2023-05-21T09:51:16.749Z,102146.28
2023-05-21T09:53:57.687Z,102145.09
2023-05-21T09:56:27.165Z,102137.66
2023-05-21T09:58:55.010Z,102138.63
2023-05-21T10:01:21.874Z,102133.84
2023-05-21T10:03:53.780Z,102135.28
2023-05-21T10:06:21.638Z,102121.03
2023-05-21T10:08:51.454Z,102121.03
2023-05-21T10:11:21.291Z,102121.91
2023-05-21T10:13:52.077Z,102131.63
2023-05-21T10:16:19.370Z,102115.50
2023-05-21T10:18:47.307Z,102123.19
2023-05-21T10:21:14.120Z,102115.41
2023-05-21T10:23:41.767Z,102110.78
2023-05-21T10:26:09.326Z,102122.31
2023-05-21T10:28:36.745Z,102090.34
2023-05-21T10:31:04.865Z,102116.47
2023-05-21T10:33:34.489Z,102105.84
2023-05-21T10:36:02.614Z,102114.38
2023-05-21T10:38:30.371Z,102112.09
2023-05-21T10:40:58.387Z,102111.72
2023-05-21T10:43:38.812Z,102117.25
2023-05-21T10:46:39.522Z,102102.78
2023-05-21T10:49:26.641Z,102109.13
2023-05-21T10:52:16.337Z,102105.34
2023-05-21T10:54:46.203Z,102082.28
2023-05-21T10:57:37.365Z,102101.22
2023-05-21T11:00:06.130Z,102100.91
2023-05-21T11:02:34.317Z,102098.69
2023-05-21T11:05:01.940Z,102082.22
2023-05-21T11:07:51.991Z,102084.28
2023-05-21T11:10:39.338Z,102069.41
2023-05-21T11:13:13.011Z,102067.31
2023-05-21T11:15:57.649Z,102073.28
2023-05-21T11:18:36.732Z,102081.91
2023-05-21T11:21:17.011Z,102080.22
2023-05-21T11:24:05.244Z,102075.19
2023-05-21T11:26:58.516Z,102080.34
2023-05-21T11:29:55.666Z,102073.59
2023-05-21T11:32:24.205Z,102070.38
2023-05-21T11:34:51.148Z,102075.03
2023-05-21T11:37:25.080Z,102067.63
2023-05-21T11:39:51.657Z,102067.94
2023-05-21T11:42:34.269Z,102073.66
2023-05-21T11:45:04.361Z,102053.84
2023-05-21T11:47:32.343Z,102040.19
2023-05-21T11:50:01.437Z,102054.56
2023-05-21T11:52:31.909Z,102045.91
2023-05-21T11:54:59.741Z,102051.91
2023-05-21T11:57:30.488Z,102059.22
2023-05-21T12:00:01.183Z,102042.81
2023-05-21T12:02:31.422Z,102059.81
2023-05-21T12:05:01.035Z,102042.16
2023-05-21T12:07:29.722Z,102044.66
2023-05-21T12:09:56.819Z,102035.53
2023-05-21T12:12:25.951Z,102044.19
2023-05-21T12:14:54.873Z,102024.69
2023-05-21T12:17:24.122Z,102018.19
2023-05-21T12:19:52.934Z,102025.44
2023-05-21T12:22:20.234Z,102029.56
2023-05-21T12:24:48.378Z,102025.03
2023-05-21T12:27:16.873Z,102024.63
2023-05-21T12:29:45.519Z,102022.72
2023-05-21T12:32:15.920Z,102014.38
2023-05-21T12:34:46.768Z,102014.59
2023-05-21T12:37:22.826Z,102014.28
2023-05-21T12:39:51.232Z,102013.91
2023-05-21T12:42:26.172Z,102007.25
2023-05-21T12:44:53.470Z,102014.59
2023-05-21T12:47:23.650Z,102005.88
2023-05-21T12:49:53.063Z,102010.66
2023-05-21T12:52:21.572Z,102003.56
2023-05-21T12:54:52.781Z,102011.97
2023-05-21T12:57:21.252Z,102010.81
2023-05-21T12:59:58.524Z,102004.22
2023-05-21T13:02:41.657Z,102003.97
2023-05-21T13:05:11.182Z,102004.41
2023-05-21T13:07:39.378Z,102009.59
2023-05-21T13:10:09.060Z,102012.00
2023-05-21T13:12:36.120Z,102003.03
2023-05-21T13:15:04.795Z,102001.44
2023-05-21T13:17:32.782Z,102000.25
2023-05-21T13:20:12.883Z,102004.25
2023-05-21T13:22:42.635Z,101996.13
2023-05-21T13:25:11.366Z,102001.13
2023-05-21T13:27:39.191Z,102008.22
2023-05-21T13:30:06.430Z,101993.97
2023-05-21T13:32:34.496Z,101987.75
2023-05-21T13:35:01.105Z,101990.44
2023-05-21T13:37:28.020Z,101996.47
2023-05-21T13:39:54.682Z,101998.31
2023-05-21T13:42:21.287Z,101980.22
2023-05-21T13:44:48.149Z,101991.66
2023-05-21T13:47:15.207Z,101992.28
2023-05-21T13:49:44.319Z,101981.44
2023-05-21T13:52:12.134Z,101978.84
2023-05-21T13:54:38.504Z,101978.31
2023-05-21T13:57:05.111Z,101991.47
2023-05-21T13:59:33.658Z,101986.88
2023-05-21T14:02:01.483Z,101970.72
2023-05-21T14:04:28.151Z,101988.03
2023-05-21T14:06:55.042Z,101996.97
2023-05-21T14:09:23.304Z,101989.16
2023-05-21T14:11:49.789Z,101981.09
2023-05-21T14:14:19.186Z,101990.16
2023-05-21T14:16:47.199Z,101986.16
2023-05-21T14:19:14.195Z,101981.44
2023-05-21T14:21:41.549Z,101988.47
2023-05-21T14:24:08.338Z,101984.31
2023-05-21T14:26:36.728Z,101980.03
2023-05-21T14:29:03.216Z,101983.53
2023-05-21T14:31:29.891Z,101979.78
2023-05-21T14:33:56.470Z,101986.81
2023-05-21T14:36:23.027Z,101975.44
2023-05-21T14:38:49.583Z,101972.38
2023-05-21T14:41:16.010Z,101963.03
2023-05-21T14:43:42.614Z,101975.41
2023-05-21T14:46:10.927Z,101972.19
2023-05-21T14:48:37.352Z,101961.72
2023-05-21T14:51:03.948Z,101953.81
2023-05-21T14:53:30.529Z,101962.72
2023-05-21T14:55:57.272Z,101955.94
2023-05-21T14:58:23.779Z,101959.69
2023-05-21T15:00:50.344Z,101948.97
2023-05-21T15:03:17.229Z,101955.78
2023-05-21T15:05:43.780Z,101954.53
2023-05-21T15:08:13.311Z,101945.72
2023-05-21T15:10:39.954Z,101931.97
2023-05-21T15:13:06.549Z,101931.41
2023-05-21T15:15:33.073Z,101936.38
2023-05-21T15:17:59.587Z,101929.50
2023-05-21T15:20:26.212Z,101944.53
2023-05-21T15:22:59.075Z,101937.56
2023-05-21T15:25:36.462Z,101934.47
2023-05-21T15:28:03.483Z,101925.75
2023-05-21T15:30:30.001Z,101943.59
2023-05-21T15:32:56.474Z,101925.66
2023-05-21T15:35:23.071Z,101920.47
2023-05-21T15:37:49.794Z,101943.56
2023-05-21T15:40:16.311Z,101925.63
2023-05-21T15:42:42.955Z,101930.91
2023-05-21T15:45:09.819Z,101937.91
2023-05-21T15:47:36.698Z,101924.34
2023-05-21T15:50:03.409Z,101930.75
2023-05-21T15:52:30.359Z,101920.56
2023-05-21T15:54:57.015Z,101928.88
2023-05-21T15:57:23.595Z,101911.50
2023-05-21T15:59:50.773Z,101902.53
2023-05-21T16:02:17.234Z,101915.00
2023-05-21T16:04:46.704Z,101910.38
2023-05-21T16:07:13.179Z,101916.25
2023-05-21T16:09:39.617Z,101892.59
2023-05-21T16:12:06.466Z,101908.31
2023-05-21T16:14:33.076Z,101917.00
2023-05-21T16:16:59.643Z,101910.63
2023-05-21T16:19:26.258Z,101910.19
2023-05-21T16:21:52.723Z,101913.31
2023-05-21T16:24:19.584Z,101917.44
2023-05-21T16:26:49.571Z,101923.44
2023-05-21T16:29:16.092Z,101916.22
2023-05-21T16:31:42.718Z,101918.19
2023-05-21T16:34:09.247Z,101894.78
2023-05-21T16:36:37.422Z,101913.06
2023-05-21T16:39:04.323Z,101912.53
2023-05-21T16:41:30.873Z,101907.16
2023-05-21T16:43:57.328Z,101901.75
2023-05-21T16:46:23.912Z,101897.09
2023-05-21T16:48:50.627Z,101910.31
2023-05-21T16:51:17.300Z,101890.53
2023-05-21T16:53:43.947Z,101905.00
2023-05-21T16:56:10.549Z,101910.44
2023-05-21T16:58:37.055Z,101891.25
2023-05-21T17:01:06.302Z,101904.16
2023-05-21T17:03:33.024Z,101877.75
2023-05-21T17:06:02.046Z,101887.66
2023-05-21T17:08:28.547Z,101882.03
2023-05-21T17:10:56.012Z,101878.84
2023-05-21T17:13:23.394Z,101890.84
2023-05-21T17:15:53.331Z,101899.66
2023-05-21T17:18:19.946Z,101899.53
2023-05-21T17:20:46.502Z,101898.44
2023-05-21T17:23:13.139Z,101906.22
2023-05-21T17:25:40.325Z,101901.50
2023-05-21T17:28:07.186Z,101891.66
2023-05-21T17:30:33.893Z,101898.56
2023-05-21T17:33:02.166Z,101901.69
2023-05-21T17:35:28.994Z,101896.72
2023-05-21T17:37:55.575Z,101901.28
2023-05-21T17:40:24.549Z,101883.50
2023-05-21T17:42:52.304Z,101886.69
2023-05-21T17:45:19.289Z,101901.91
2023-05-21T17:47:46.882Z,101895.69
2023-05-21T17:50:13.665Z,101906.22
2023-05-21T17:52:40.306Z,101896.47
2023-05-21T17:55:07.850Z,101896.19
2023-05-21T17:57:35.847Z,101898.06
2023-05-21T18:00:04.909Z,101895.41
2023-05-21T18:02:31.804Z,101896.25
2023-05-21T18:04:59.278Z,101897.47
2023-05-21T18:07:25.873Z,101897.53
2023-05-21T18:09:52.415Z,101898.50
2023-05-21T18:12:19.047Z,101887.28
2023-05-21T18:14:47.867Z,101880.47
2023-05-21T18:17:14.295Z,101895.84
2023-05-21T18:19:40.780Z,101898.16
2023-05-21T18:22:07.831Z,101898.78
2023-05-21T18:24:34.520Z,101897.78
2023-05-21T18:27:01.022Z,101894.13
2023-05-21T18:29:27.489Z,101874.66
2023-05-21T18:31:54.119Z,101899.03
2023-05-21T18:34:23.561Z,101895.38
2023-05-21T18:36:50.097Z,101907.31
2023-05-21T18:39:16.622Z,101898.69
2023-05-21T18:41:43.510Z,101907.59
2023-05-21T18:44:10.020Z,101898.44
2023-05-21T18:46:37.766Z,101908.31
2023-05-21T18:49:04.951Z,101909.41
2023-05-21T18:51:31.749Z,101902.97
2023-05-21T18:53:58.676Z,101906.50
2023-05-21T18:56:25.841Z,101899.78
2023-05-21T18:58:52.609Z,101900.81
2023-05-21T19:01:19.208Z,101867.44
2023-05-21T19:03:45.869Z,101894.97
2023-05-21T19:06:12.538Z,101913.97
2023-05-21T19:08:40.433Z,101913.00
2023-05-21T19:11:07.393Z,101915.44
2023-05-21T19:13:34.559Z,101878.50
2023-05-21T19:16:02.230Z,101904.69
2023-05-21T19:18:32.408Z,101913.34
2023-05-21T19:21:00.431Z,101910.44
2023-05-21T19:23:26.980Z,101909.19
2023-05-21T19:25:53.659Z,101907.59
2023-05-21T19:28:20.367Z,101903.66
2023-05-21T19:30:46.971Z,101915.00
2023-05-21T19:33:16.649Z,101908.78
2023-05-21T19:35:43.385Z,101907.53
2023-05-21T19:38:11.004Z,101904.06
2023-05-21T19:40:38.227Z,101903.59
2023-05-21T19:43:04.889Z,101907.88
2023-05-21T19:45:31.557Z,101905.78
2023-05-21T19:47:59.555Z,101906.63
2023-05-21T19:50:28.442Z,101910.88
2023-05-21T19:52:57.169Z,101896.66
2023-05-21T19:55:24.493Z,101906.00
2023-05-21T19:57:51.067Z,101921.09
2023-05-21T20:02:56.572Z,101907.22
2023-05-21T20:05:23.362Z,101888.75
2023-05-21T20:07:50.159Z,101891.31
2023-05-21T20:10:16.887Z,101904.88
2023-05-21T20:12:43.798Z,101908.75
2023-05-21T20:15:13.275Z,101878.81
2023-05-21T20:17:42.902Z,101901.81
2023-05-21T20:20:12.189Z,101879.91
2023-05-21T20:22:38.768Z,101898.09
2023-05-21T20:25:08.430Z,101906.88
2023-05-21T20:27:35.768Z,101903.25
2023-05-21T20:30:02.745Z,101907.84
2023-05-21T20:32:31.816Z,101907.41
2023-05-21T20:35:03.316Z,101917.25
2023-05-21T20:37:32.562Z,101909.84
2023-05-21T20:39:59.993Z,101910.63
2023-05-21T20:42:28.679Z,101924.53
2023-05-21T20:44:59.021Z,101905.75
2023-05-21T20:47:29.922Z,101893.34
2023-05-21T20:49:57.867Z,101901.75
2023-05-21T20:52:29.099Z,101914.22
2023-05-21T20:54:56.692Z,101919.22
2023-05-21T20:57:24.181Z,101912.31
2023-05-21T20:59:53.698Z,101919.06
2023-05-21T21:02:23.682Z,101895.44
2023-05-21T21:04:56.516Z,101917.88
2023-05-21T21:07:23.503Z,101922.66
2023-05-21T21:09:50.372Z,101912.31
2023-05-21T21:12:26.657Z,101920.84
2023-05-21T21:14:54.606Z,101908.69
2023-05-21T21:17:27.624Z,101915.09
2023-05-21T21:19:54.461Z,101896.84
2023-05-21T21:22:21.605Z,101912.63
2023-05-21T21:24:48.939Z,101913.19
2023-05-21T21:27:15.988Z,101896.72
2023-05-21T21:29:46.451Z,101889.66
2023-05-21T21:32:13.586Z,101877.25
2023-05-21T21:34:43.328Z,101894.72
2023-05-21T21:37:16.436Z,101881.53
2023-05-21T21:39:43.434Z,101892.06
2023-05-21T21:42:10.602Z,101879.28
2023-05-21T21:44:47.894Z,101891.28
2023-05-21T21:47:14.905Z,101904.44
2023-05-21T21:49:43.925Z,101891.91
2023-05-21T21:52:12.558Z,101883.66
2023-05-21T21:54:39.310Z,101892.22
2023-05-21T21:57:06.349Z,101883.78
2023-05-21T21:59:34.094Z,101906.22
2023-05-21T22:02:01.180Z,101896.94
2023-05-21T22:04:28.161Z,101914.34
2023-05-21T22:06:58.233Z,101890.72
2023-05-21T22:09:25.284Z,101881.84
2023-05-21T22:11:53.495Z,101877.59
2023-05-21T22:14:20.336Z,101882.38
2023-05-21T22:16:47.907Z,101875.88
2023-05-21T22:19:17.994Z,101880.91
2023-05-21T22:21:48.005Z,101888.69
2023-05-21T22:24:30.773Z,101883.16
2023-05-21T22:26:58.828Z,101887.22
2023-05-21T22:29:25.602Z,101880.47
2023-05-21T22:31:54.974Z,101872.91
2023-05-21T22:34:23.191Z,101882.94
2023-05-21T22:36:52.349Z,101864.25
2023-05-21T22:39:19.214Z,101878.97
2023-05-21T22:41:46.068Z,101865.50
2023-05-21T22:44:13.345Z,101867.88
2023-05-21T22:46:42.190Z,101887.22
2023-05-21T22:49:10.867Z,101869.59
2023-05-21T22:51:38.020Z,101855.34
2023-05-21T22:54:05.224Z,101867.13
2023-05-21T22:56:35.177Z,101855.97
2023-05-21T22:59:02.110Z,101859.66
2023-05-21T23:01:29.485Z,101865.00
2023-05-21T23:04:01.436Z,101870.97
2023-05-21T23:06:28.635Z,101852.38
2023-05-21T23:08:59.263Z,101847.16
2023-05-21T23:11:29.415Z,101863.50
2023-05-21T23:13:56.553Z,101845.22
2023-05-21T23:16:25.970Z,101861.56
2023-05-21T23:18:54.568Z,101857.41
2023-05-21T23:21:21.908Z,101856.97
2023-05-21T23:23:48.976Z,101830.88
2023-05-21T23:26:16.084Z,101840.59
2023-05-21T23:28:45.932Z,101842.66
2023-05-21T23:31:15.449Z,101840.00
2023-05-21T23:33:45.016Z,101855.06
2023-05-21T23:36:11.953Z,101849.06
2023-05-21T23:38:41.780Z,101853.56
2023-05-21T23:41:08.829Z,101848.00
2023-05-21T23:43:37.998Z,101862.00
2023-05-21T23:46:07.456Z,101870.75
2023-05-21T23:48:35.879Z,101862.63
2023-05-21T23:51:03.047Z,101879.72
2023-05-21T23:53:36.021Z,101847.47
2023-05-21T23:56:05.571Z,101858.69
2023-05-21T23:58:32.485Z,101849.47
